sensor_id;sensor_type;location;lat;lon;timestamp;pressure;altitude;pressure_sealevel;temperature;humidity
11936;BME280;6027;48.576;9.180;2023-09-19T00:02:02;96568.34;;;15.79;100.00
11936;BME280;6027;48.576;9.180;2023-09-19T00:04:32;96577.84;;;15.75;100.00
11936;BME280;6027;48.576;9.180;2023-09-19T00:06:58;96580.53;;;15.75;100.00
11936;BME280;6027;48.576;9.180;2023-09-19T00:09:24;96573.91;;;15.78;100.00
11936;BME280;6027;48.576;9.180;2023-09-19T00:11:52;96579.34;;;15.71;100.00
11936;BME280;6027;48.576;9.180;2023-09-19T00:14:18;96583.84;;;15.71;100.00
11936;BME280;6027;48.576;9.180;2023-09-19T00:16:43;96585.50;;;15.72;100.00
11936;BME280;6027;48.576;9.180;2023-09-19T00:19:11;96585.66;;;15.77;100.00
11936;BME280;6027;48.576;9.180;2023-09-19T00:21:37;96579.34;;;15.71;100.00
11936;BME280;6027;48.576;9.180;2023-09-19T00:24:04;96576.22;;;15.74;100.00
11936;BME280;6027;48.576;9.180;2023-09-19T00:26:31;96583.47;;;15.67;100.00
11936;BME280;6027;48.576;9.180;2023-09-19T00:28:57;96579.56;;;15.70;100.00
11936;BME280;6027;48.576;9.180;2023-09-19T00:31:30;96596.00;;;15.67;100.00
11936;BME280;6027;48.576;9.180;2023-09-19T00:33:55;96587.22;;;15.60;100.00
11936;BME280;6027;48.576;9.180;2023-09-19T00:36:25;96589.25;;;15.64;100.00
11936;BME280;6027;48.576;9.180;2023-09-19T00:38:51;96579.47;;;15.58;100.00
11936;BME280;6027;48.576;9.180;2023-09-19T00:41:16;96581.13;;;15.52;100.00
11936;BME280;6027;48.576;9.180;2023-09-19T00:43:42;96569.03;;;15.57;100.00
11936;BME280;6027;48.576;9.180;2023-09-19T00:46:08;96573.91;;;15.60;100.00
11936;BME280;6027;48.576;9.180;2023-09-19T00:48:40;96572.91;;;15.54;100.00
11936;BME280;6027;48.576;9.180;2023-09-19T00:51:06;96569.47;;;15.47;100.00
11936;BME280;6027;48.576;9.180;2023-09-19T00:53:32;96572.09;;;15.53;100.00
11936;BME280;6027;48.576;9.180;2023-09-19T00:55:59;96568.84;;;15.51;100.00
11936;BME280;6027;48.576;9.180;2023-09-19T00:58:25;96578.88;;;15.56;100.00
11936;BME280;6027;48.576;9.180;2023-09-19T01:00:51;96570.41;;;15.59;100.00
11936;BME280;6027;48.576;9.180;2023-09-19T01:03:17;96567.75;;;15.59;100.00
11936;BME280;6027;48.576;9.180;2023-09-19T01:05:43;96581.09;;;15.59;100.00
11936;BME280;6027;48.576;9.180;2023-09-19T01:08:09;96581.09;;;15.59;100.00
11936;BME280;6027;48.576;9.180;2023-09-19T01:10:49;96584.94;;;15.63;100.00
11936;BME280;6027;48.576;9.180;2023-09-19T01:13:31;96581.56;;;15.56;100.00
11936;BME280;6027;48.576;9.180;2023-09-19T01:16:14;96579.28;;;15.53;100.00
11936;BME280;6027;48.576;9.180;2023-09-19T01:19:07;96586.88;;;15.56;100.00
11936;BME280;6027;48.576;9.180;2023-09-19T01:29:42;96584.06;;;15.69;100.00
11936;BME280;6027;48.576;9.180;2023-09-19T01:32:11;96585.75;;;15.64;100.00
11936;BME280;6027;48.576;9.180;2023-09-19T01:37:14;96585.84;;;15.57;100.00
11936;BME280;6027;48.576;9.180;2023-09-19T01:39:48;96586.41;;;15.59;100.00
11936;BME280;6027;48.576;9.180;2023-09-19T01:47:34;96597.56;;;15.56;100.00
11936;BME280;6027;48.576;9.180;2023-09-19T01:52:36;96608.16;;;15.63;100.00
11936;BME280;6027;48.576;9.180;2023-09-19T01:55:09;96612.66;;;15.62;100.00
11936;BME280;6027;48.576;9.180;2023-09-19T02:00:27;96617.78;;;15.64;100.00
11936;BME280;6027;48.576;9.180;2023-09-19T02:02:56;96615.59;;;15.54;100.00
11936;BME280;6027;48.576;9.180;2023-09-19T02:05:24;96618.59;;;15.64;100.00
11936;BME280;6027;48.576;9.180;2023-09-19T02:07:51;96622.69;;;15.67;100.00
11936;BME280;6027;48.576;9.180;2023-09-19T02:10:18;96631.47;;;15.74;100.00
11936;BME280;6027;48.576;9.180;2023-09-19T02:12:43;96633.19;;;15.62;100.00
11936;BME280;6027;48.576;9.180;2023-09-19T02:15:10;96632.84;;;15.58;100.00
11936;BME280;6027;48.576;9.180;2023-09-19T02:17:36;96628.75;;;15.56;100.00
11936;BME280;6027;48.576;9.180;2023-09-19T02:20:01;96640.84;;;15.58;100.00
11936;BME280;6027;48.576;9.180;2023-09-19T02:22:27;96641.88;;;15.57;100.00
11936;BME280;6027;48.576;9.180;2023-09-19T02:24:53;96644.84;;;15.67;100.00
11936;BME280;6027;48.576;9.180;2023-09-19T02:27:19;96648.50;;;15.73;100.00
11936;BME280;6027;48.576;9.180;2023-09-19T02:29:45;96650.41;;;15.66;100.00
11936;BME280;6027;48.576;9.180;2023-09-19T02:32:10;96648.13;;;15.69;100.00
11936;BME280;6027;48.576;9.180;2023-09-19T02:34:57;96647.84;;;15.77;100.00
11936;BME280;6027;48.576;9.180;2023-09-19T02:37:23;96652.91;;;15.85;100.00
11936;BME280;6027;48.576;9.180;2023-09-19T02:39:48;96656.81;;;15.83;100.00
11936;BME280;6027;48.576;9.180;2023-09-19T02:42:14;96648.81;;;15.83;100.00
11936;BME280;6027;48.576;9.180;2023-09-19T02:44:40;96655.88;;;15.96;100.00
11936;BME280;6027;48.576;9.180;2023-09-19T02:47:05;96659.28;;;16.03;100.00
11936;BME280;6027;48.576;9.180;2023-09-19T02:49:31;96655.75;;;16.09;100.00
11936;BME280;6027;48.576;9.180;2023-09-19T02:51:57;96663.16;;;16.07;100.00
11936;BME280;6027;48.576;9.180;2023-09-19T02:54:24;96657.38;;;16.10;100.00
11936;BME280;6027;48.576;9.180;2023-09-19T02:56:50;96660.63;;;16.12;100.00
11936;BME280;6027;48.576;9.180;2023-09-19T02:59:15;96658.56;;;16.14;100.00
11936;BME280;6027;48.576;9.180;2023-09-19T03:01:43;96663.22;;;16.18;100.00
11936;BME280;6027;48.576;9.180;2023-09-19T03:04:09;96661.38;;;16.19;100.00
11936;BME280;6027;48.576;9.180;2023-09-19T03:06:37;96664.25;;;16.17;100.00
11936;BME280;6027;48.576;9.180;2023-09-19T03:09:03;96663.00;;;16.20;100.00
11936;BME280;6027;48.576;9.180;2023-09-19T03:11:31;96664.63;;;16.21;100.00
11936;BME280;6027;48.576;9.180;2023-09-19T03:13:57;96666.03;;;16.23;100.00
11936;BME280;6027;48.576;9.180;2023-09-19T03:16:23;96669.31;;;16.26;100.00
11936;BME280;6027;48.576;9.180;2023-09-19T03:18:50;96671.63;;;16.22;100.00
11936;BME280;6027;48.576;9.180;2023-09-19T03:21:16;96674.66;;;16.07;100.00
11936;BME280;6027;48.576;9.180;2023-09-19T03:23:43;96673.41;;;16.10;100.00
11936;BME280;6027;48.576;9.180;2023-09-19T03:26:12;96670.13;;;16.08;100.00
11936;BME280;6027;48.576;9.180;2023-09-19T03:28:38;96668.13;;;16.03;100.00
11936;BME280;6027;48.576;9.180;2023-09-19T03:31:05;96669.97;;;16.03;100.00
11936;BME280;6027;48.576;9.180;2023-09-19T03:33:31;96672.53;;;16.16;100.00
11936;BME280;6027;48.576;9.180;2023-09-19T03:35:58;96674.81;;;16.12;100.00
11936;BME280;6027;48.576;9.180;2023-09-19T03:38:27;96673.31;;;16.16;100.00
11936;BME280;6027;48.576;9.180;2023-09-19T03:40:56;96674.22;;;16.10;100.00
11936;BME280;6027;48.576;9.180;2023-09-19T03:43:22;96670.63;;;15.98;100.00
11936;BME280;6027;48.576;9.180;2023-09-19T03:45:47;96676.66;;;15.94;100.00
11936;BME280;6027;48.576;9.180;2023-09-19T03:48:14;96667.94;;;15.80;100.00
11936;BME280;6027;48.576;9.180;2023-09-19T03:50:40;96671.34;;;15.69;100.00
11936;BME280;6027;48.576;9.180;2023-09-19T03:53:05;96667.69;;;15.63;100.00
11936;BME280;6027;48.576;9.180;2023-09-19T03:55:33;96676.81;;;15.49;100.00
11936;BME280;6027;48.576;9.180;2023-09-19T03:58:01;96677.53;;;15.38;100.00
11936;BME280;6027;48.576;9.180;2023-09-19T04:00:27;96677.31;;;15.39;100.00
11936;BME280;6027;48.576;9.180;2023-09-19T04:02:54;96678.56;;;15.37;100.00
11936;BME280;6027;48.576;9.180;2023-09-19T04:05:22;96673.88;;;15.32;100.00
11936;BME280;6027;48.576;9.180;2023-09-19T04:07:48;96675.53;;;15.27;100.00
11936;BME280;6027;48.576;9.180;2023-09-19T04:10:14;96666.91;;;15.31;100.00
11936;BME280;6027;48.576;9.180;2023-09-19T04:12:40;96674.84;;;15.38;100.00
11936;BME280;6027;48.576;9.180;2023-09-19T04:15:09;96669.88;;;15.41;100.00
11936;BME280;6027;48.576;9.180;2023-09-19T04:17:36;96657.22;;;15.37;100.00
11936;BME280;6027;48.576;9.180;2023-09-19T04:20:02;96671.38;;;15.37;100.00
11936;BME280;6027;48.576;9.180;2023-09-19T04:22:30;96666.31;;;15.23;100.00
11936;BME280;6027;48.576;9.180;2023-09-19T04:24:55;96669.38;;;15.26;100.00
11936;BME280;6027;48.576;9.180;2023-09-19T04:27:22;96672.47;;;15.23;100.00
11936;BME280;6027;48.576;9.180;2023-09-19T04:29:48;96678.03;;;15.21;100.00
11936;BME280;6027;48.576;9.180;2023-09-19T04:32:14;96686.47;;;15.18;100.00
11936;BME280;6027;48.576;9.180;2023-09-19T04:34:42;96671.56;;;15.11;100.00
11936;BME280;6027;48.576;9.180;2023-09-19T04:37:08;96675.63;;;15.13;100.00
11936;BME280;6027;48.576;9.180;2023-09-19T04:39:34;96677.09;;;15.09;100.00
11936;BME280;6027;48.576;9.180;2023-09-19T04:41:59;96682.25;;;15.04;100.00
11936;BME280;6027;48.576;9.180;2023-09-19T04:44:25;96672.00;;;15.01;100.00
11936;BME280;6027;48.576;9.180;2023-09-19T04:46:54;96682.22;;;15.11;100.00
11936;BME280;6027;48.576;9.180;2023-09-19T04:49:19;96680.59;;;15.03;100.00
11936;BME280;6027;48.576;9.180;2023-09-19T04:51:45;96680.38;;;15.11;100.00
11936;BME280;6027;48.576;9.180;2023-09-19T04:54:12;96684.84;;;15.17;100.00
11936;BME280;6027;48.576;9.180;2023-09-19T04:56:38;96678.31;;;15.13;100.00
11936;BME280;6027;48.576;9.180;2023-09-19T04:59:05;96692.66;;;15.12;100.00
11936;BME280;6027;48.576;9.180;2023-09-19T05:01:31;96686.31;;;15.13;100.00
11936;BME280;6027;48.576;9.180;2023-09-19T05:03:56;96692.66;;;15.12;100.00
11936;BME280;6027;48.576;9.180;2023-09-19T05:06:23;96690.00;;;15.12;100.00
11936;BME280;6027;48.576;9.180;2023-09-19T05:08:49;96701.69;;;15.11;100.00
11936;BME280;6027;48.576;9.180;2023-09-19T05:11:21;96696.38;;;15.11;100.00
11936;BME280;6027;48.576;9.180;2023-09-19T05:13:48;96700.25;;;15.15;100.00
11936;BME280;6027;48.576;9.180;2023-09-19T05:16:15;96694.22;;;15.27;100.00
11936;BME280;6027;48.576;9.180;2023-09-19T05:18:41;96693.59;;;15.25;100.00
11936;BME280;6027;48.576;9.180;2023-09-19T05:21:07;96706.13;;;15.24;100.00
11936;BME280;6027;48.576;9.180;2023-09-19T05:23:33;96704.22;;;15.31;100.00
11936;BME280;6027;48.576;9.180;2023-09-19T05:25:59;96701.56;;;15.31;100.00
11936;BME280;6027;48.576;9.180;2023-09-19T05:28:26;96704.03;;;15.33;100.00
11936;BME280;6027;48.576;9.180;2023-09-19T05:30:52;96706.69;;;15.33;100.00
11936;BME280;6027;48.576;9.180;2023-09-19T05:33:19;96709.91;;;15.41;100.00
11936;BME280;6027;48.576;9.180;2023-09-19T05:35:45;96715.50;;;15.33;100.00
11936;BME280;6027;48.576;9.180;2023-09-19T05:38:15;96719.00;;;15.34;100.00
11936;BME280;6027;48.576;9.180;2023-09-19T05:40:45;96719.59;;;15.36;100.00
11936;BME280;6027;48.576;9.180;2023-09-19T05:43:10;96722.28;;;15.36;100.00
11936;BME280;6027;48.576;9.180;2023-09-19T05:45:36;96725.38;;;15.33;100.00
11936;BME280;6027;48.576;9.180;2023-09-19T05:48:13;96729.88;;;15.32;100.00
11936;BME280;6027;48.576;9.180;2023-09-19T05:50:41;96742.38;;;15.38;100.00
11936;BME280;6027;48.576;9.180;2023-09-19T05:53:07;96742.94;;;15.40;100.00
11936;BME280;6027;48.576;9.180;2023-09-19T05:55:33;96738.50;;;15.34;100.00
11936;BME280;6027;48.576;9.180;2023-09-19T05:57:59;96757.69;;;15.43;100.00
11936;BME280;6027;48.576;9.180;2023-09-19T06:00:25;96763.25;;;15.41;100.00
11936;BME280;6027;48.576;9.180;2023-09-19T06:02:53;96758.53;;;15.43;100.00
11936;BME280;6027;48.576;9.180;2023-09-19T06:05:19;96771.00;;;15.49;100.00
11936;BME280;6027;48.576;9.180;2023-09-19T06:07:45;96772.03;;;15.48;100.00
11936;BME280;6027;48.576;9.180;2023-09-19T06:10:12;96773.72;;;15.43;100.00
11936;BME280;6027;48.576;9.180;2023-09-19T06:12:39;96770.22;;;15.42;100.00
11936;BME280;6027;48.576;9.180;2023-09-19T06:15:05;96774.38;;;15.38;100.00
11936;BME280;6027;48.576;9.180;2023-09-19T06:17:31;96778.72;;;15.33;100.00
11936;BME280;6027;48.576;9.180;2023-09-19T06:19:57;96782.84;;;15.29;100.00
11936;BME280;6027;48.576;9.180;2023-09-19T06:22:22;96781.81;;;15.30;100.00
11936;BME280;6027;48.576;9.180;2023-09-19T06:24:49;96784.47;;;15.30;100.00
11936;BME280;6027;48.576;9.180;2023-09-19T06:27:15;96788.16;;;15.29;100.00
11936;BME280;6027;48.576;9.180;2023-09-19T06:29:41;96789.41;;;15.26;100.00
11936;BME280;6027;48.576;9.180;2023-09-19T06:32:10;96801.09;;;15.32;100.00
11936;BME280;6027;48.576;9.180;2023-09-19T06:34:36;96803.75;;;15.32;100.00
11936;BME280;6027;48.576;9.180;2023-09-19T06:37:04;96803.53;;;15.33;100.00
11936;BME280;6027;48.576;9.180;2023-09-19T06:39:31;96800.47;;;15.30;100.00
11936;BME280;6027;48.576;9.180;2023-09-19T06:41:57;96802.13;;;15.31;100.00
11936;BME280;6027;48.576;9.180;2023-09-19T06:44:23;96810.13;;;15.31;100.00
11936;BME280;6027;48.576;9.180;2023-09-19T06:46:50;96809.72;;;15.27;100.00
11936;BME280;6027;48.576;9.180;2023-09-19T06:49:17;96812.38;;;15.34;100.00
11936;BME280;6027;48.576;9.180;2023-09-19T06:51:42;96812.38;;;15.34;100.00
11936;BME280;6027;48.576;9.180;2023-09-19T06:54:09;96813.81;;;15.30;100.00
11936;BME280;6027;48.576;9.180;2023-09-19T06:56:35;96811.75;;;15.32;100.00
11936;BME280;6027;48.576;9.180;2023-09-19T06:59:00;96811.56;;;15.27;100.00
11936;BME280;6027;48.576;9.180;2023-09-19T07:01:28;96810.94;;;15.31;100.00
11936;BME280;6027;48.576;9.180;2023-09-19T07:03:53;96818.72;;;15.33;100.00
11936;BME280;6027;48.576;9.180;2023-09-19T07:06:19;96818.50;;;15.34;100.00
11936;BME280;6027;48.576;9.180;2023-09-19T07:08:45;96823.59;;;15.42;100.00
11936;BME280;6027;48.576;9.180;2023-09-19T07:11:10;96818.81;;;15.51;100.00
11936;BME280;6027;48.576;9.180;2023-09-19T07:13:37;96829.06;;;15.54;100.00
11936;BME280;6027;48.576;9.180;2023-09-19T07:16:03;96831.28;;;15.64;100.00
11936;BME280;6027;48.576;9.180;2023-09-19T07:18:29;96825.19;;;15.57;100.00
11936;BME280;6027;48.576;9.180;2023-09-19T07:20:58;96826.16;;;15.62;100.00
11936;BME280;6027;48.576;9.180;2023-09-19T07:23:30;96833.81;;;15.59;100.00
11936;BME280;6027;48.576;9.180;2023-09-19T07:26:00;96832.72;;;15.66;100.00
11936;BME280;6027;48.576;9.180;2023-09-19T07:28:29;96827.94;;;15.75;100.00
11936;BME280;6027;48.576;9.180;2023-09-19T07:30:54;96841.44;;;15.80;100.00
11936;BME280;6027;48.576;9.180;2023-09-19T07:33:20;96845.31;;;15.84;100.00
11936;BME280;6027;48.576;9.180;2023-09-19T07:35:47;96843.88;;;15.88;100.00
11936;BME280;6027;48.576;9.180;2023-09-19T07:38:13;96846.53;;;15.88;100.00
11936;BME280;6027;48.576;9.180;2023-09-19T07:40:39;96846.31;;;15.89;100.00
11936;BME280;6027;48.576;9.180;2023-09-19T07:43:05;96855.34;;;15.95;100.00
11936;BME280;6027;48.576;9.180;2023-09-19T07:45:32;96859.19;;;15.99;100.00
11936;BME280;6027;48.576;9.180;2023-09-19T07:47:58;96842.91;;;16.07;100.00
11936;BME280;6027;48.576;9.180;2023-09-19T07:50:26;96851.34;;;16.04;100.00
11936;BME280;6027;48.576;9.180;2023-09-19T07:52:52;96859.53;;;16.09;100.00
11936;BME280;6027;48.576;9.180;2023-09-19T07:55:19;96856.03;;;16.09;100.00
11936;BME280;6027;48.576;9.180;2023-09-19T07:57:48;96867.34;;;16.11;100.00
11936;BME280;6027;48.576;9.180;2023-09-19T08:00:14;96862.59;;;16.13;100.00
11936;BME280;6027;48.576;9.180;2023-09-19T08:02:40;96864.22;;;16.14;100.00
11936;BME280;6027;48.576;9.180;2023-09-19T08:05:07;96866.84;;;16.20;100.00
11936;BME280;6027;48.576;9.180;2023-09-19T08:07:38;96868.09;;;16.18;100.00
11936;BME280;6027;48.576;9.180;2023-09-19T08:10:05;96875.53;;;16.16;100.00
11936;BME280;6027;48.576;9.180;2023-09-19T08:12:34;96871.03;;;16.10;100.00
11936;BME280;6027;48.576;9.180;2023-09-19T08:15:04;96872.25;;;16.14;100.00
11936;BME280;6027;48.576;9.180;2023-09-19T08:17:34;96873.88;;;16.15;100.00
11936;BME280;6027;48.576;9.180;2023-09-19T08:20:00;96881.63;;;16.23;100.00
11936;BME280;6027;48.576;9.180;2023-09-19T08:22:26;96883.59;;;16.34;100.00
11936;BME280;6027;48.576;9.180;2023-09-19T08:24:52;96887.13;;;16.28;100.00
11936;BME280;6027;48.576;9.180;2023-09-19T08:27:18;96891.09;;;16.19;100.00
11936;BME280;6027;48.576;9.180;2023-09-19T08:29:45;96892.78;;;16.13;100.00
11936;BME280;6027;48.576;9.180;2023-09-19T08:32:11;96900.53;;;16.21;100.00
11936;BME280;6027;48.576;9.180;2023-09-19T08:34:37;96895.13;;;16.28;100.00
11936;BME280;6027;48.576;9.180;2023-09-19T08:37:04;96900.06;;;16.31;100.00
11936;BME280;6027;48.576;9.180;2023-09-19T08:39:30;96902.06;;;16.36;100.00
11936;BME280;6027;48.576;9.180;2023-09-19T08:41:59;96912.09;;;16.40;100.00
11936;BME280;6027;48.576;9.180;2023-09-19T08:44:26;96908.78;;;16.45;100.00
11936;BME280;6027;48.576;9.180;2023-09-19T08:47:05;96909.16;;;16.48;100.00
11936;BME280;6027;48.576;9.180;2023-09-19T08:49:41;96915.31;;;16.49;100.00
11936;BME280;6027;48.576;9.180;2023-09-19T08:52:20;96911.75;;;16.55;100.00
11936;BME280;6027;48.576;9.180;2023-09-19T08:54:47;96918.38;;;16.52;100.00
11936;BME280;6027;48.576;9.180;2023-09-19T08:57:16;96921.72;;;16.48;100.00
11936;BME280;6027;48.576;9.180;2023-09-19T08:59:48;96928.69;;;16.49;100.00
11936;BME280;6027;48.576;9.180;2023-09-19T09:02:15;96922.22;;;16.56;100.00
11936;BME280;6027;48.576;9.180;2023-09-19T09:04:49;96921.38;;;16.63;100.00
11936;BME280;6027;48.576;9.180;2023-09-19T09:07:16;96917.22;;;16.73;100.00
11936;BME280;6027;48.576;9.180;2023-09-19T09:09:42;96921.44;;;16.81;100.00
11936;BME280;6027;48.576;9.180;2023-09-19T09:12:13;96925.09;;;16.86;100.00
11936;BME280;6027;48.576;9.180;2023-09-19T09:14:40;96922.25;;;16.81;100.00
11936;BME280;6027;48.576;9.180;2023-09-19T09:17:06;96923.75;;;16.96;100.00
11936;BME280;6027;48.576;9.180;2023-09-19T09:19:32;96933.97;;;17.05;100.00
11936;BME280;6027;48.576;9.180;2023-09-19T09:22:09;96926.09;;;17.10;100.00
11936;BME280;6027;48.576;9.180;2023-09-19T09:24:54;96924.69;;;17.08;100.00
11936;BME280;6027;48.576;9.180;2023-09-19T09:27:20;96930.97;;;17.13;100.00
11936;BME280;6027;48.576;9.180;2023-09-19T09:29:48;96931.44;;;17.10;100.00
11936;BME280;6027;48.576;9.180;2023-09-19T09:34:59;96932.41;;;17.16;100.00
11936;BME280;6027;48.576;9.180;2023-09-19T09:37:26;96932.31;;;17.04;100.00
11936;BME280;6027;48.576;9.180;2023-09-19T09:39:59;96935.22;;;17.03;100.00
11936;BME280;6027;48.576;9.180;2023-09-19T09:42:45;96934.84;;;16.99;100.00
11936;BME280;6027;48.576;9.180;2023-09-19T09:45:24;96930.75;;;16.97;100.00
11936;BME280;6027;48.576;9.180;2023-09-19T09:48:12;96942.25;;;16.97;100.00
11936;BME280;6027;48.576;9.180;2023-09-19T09:50:48;96944.59;;;17.12;100.00
11936;BME280;6027;48.576;9.180;2023-09-19T09:53:25;96937.31;;;17.19;100.00
11936;BME280;6027;48.576;9.180;2023-09-19T09:56:08;96935.44;;;17.19;100.00
11936;BME280;6027;48.576;9.180;2023-09-19T10:01:13;96933.09;;;17.30;100.00
11936;BME280;6027;48.576;9.180;2023-09-19T10:03:42;96930.19;;;17.31;100.00
11936;BME280;6027;48.576;9.180;2023-09-19T10:06:18;96923.56;;;17.34;100.00
11936;BME280;6027;48.576;9.180;2023-09-19T10:09:07;96922.88;;;17.38;100.00
11936;BME280;6027;48.576;9.180;2023-09-19T10:11:41;96918.44;;;17.50;100.00
11936;BME280;6027;48.576;9.180;2023-09-19T10:14:10;96923.09;;;17.55;100.00
11936;BME280;6027;48.576;9.180;2023-09-19T10:16:40;96922.97;;;17.68;100.00
11936;BME280;6027;48.576;9.180;2023-09-19T10:19:15;96926.47;;;17.69;100.00
11936;BME280;6027;48.576;9.180;2023-09-19T10:21:41;96922.97;;;17.68;100.00
11936;BME280;6027;48.576;9.180;2023-09-19T10:24:08;96927.78;;;17.78;100.00
11936;BME280;6027;48.576;9.180;2023-09-19T10:26:36;96920.25;;;17.86;100.00
11936;BME280;6027;48.576;9.180;2023-09-19T10:29:02;96922.59;;;17.94;100.00
11936;BME280;6027;48.576;9.180;2023-09-19T10:31:32;96922.44;;;18.08;100.00
11936;BME280;6027;48.576;9.180;2023-09-19T10:34:02;96914.75;;;18.11;100.00
11936;BME280;6027;48.576;9.180;2023-09-19T10:36:32;96916.81;;;18.09;100.00
11936;BME280;6027;48.576;9.180;2023-09-19T10:39:02;96903.78;;;18.13;100.00
11936;BME280;6027;48.576;9.180;2023-09-19T10:41:32;96906.53;;;18.36;100.00
11936;BME280;6027;48.576;9.180;2023-09-19T10:44:03;96902.34;;;18.40;100.00
11936;BME280;6027;48.576;9.180;2023-09-19T10:46:33;96916.66;;;18.64;100.00
11936;BME280;6027;48.576;9.180;2023-09-19T10:49:00;96901.38;;;18.65;100.00
11936;BME280;6027;48.576;9.180;2023-09-19T10:51:29;96909.19;;;18.78;100.00
11936;BME280;6027;48.576;9.180;2023-09-19T10:54:15;96907.78;;;18.75;100.00
11936;BME280;6027;48.576;9.180;2023-09-19T10:56:46;96910.13;;;18.83;100.00
11936;BME280;6027;48.576;9.180;2023-09-19T10:59:15;96901.03;;;18.84;100.00
11936;BME280;6027;48.576;9.180;2023-09-19T11:01:48;96911.41;;;18.81;97.92
11936;BME280;6027;48.576;9.180;2023-09-19T11:04:27;96902.06;;;18.72;100.00
11936;BME280;6027;48.576;9.180;2023-09-19T11:07:29;96918.50;;;18.63;100.00
11936;BME280;6027;48.576;9.180;2023-09-19T11:09:56;96907.13;;;18.50;100.00
11936;BME280;6027;48.576;9.180;2023-09-19T11:14:57;96895.59;;;18.49;100.00
11936;BME280;6027;48.576;9.180;2023-09-19T11:30:40;96887.25;;;19.04;97.11
11936;BME280;6027;48.576;9.180;2023-09-19T11:33:28;96891.88;;;19.20;99.69
11936;BME280;6027;48.576;9.180;2023-09-19T11:43:47;96888.44;;;19.60;90.07
11936;BME280;6027;48.576;9.180;2023-09-19T11:46:13;96888.63;;;19.70;84.51
11936;BME280;6027;48.576;9.180;2023-09-19T11:48:43;96879.50;;;19.71;80.40
11936;BME280;6027;48.576;9.180;2023-09-19T11:51:20;96884.88;;;19.71;82.01
11936;BME280;6027;48.576;9.180;2023-09-19T11:53:53;96882.72;;;19.56;83.17
11936;BME280;6027;48.576;9.180;2023-09-19T11:56:24;96879.19;;;19.44;88.00
11936;BME280;6027;48.576;9.180;2023-09-19T11:58:52;96875.84;;;19.37;88.65
11936;BME280;6027;48.576;9.180;2023-09-19T12:01:23;96872.53;;;19.47;91.52
11936;BME280;6027;48.576;9.180;2023-09-19T12:03:54;96875.22;;;19.47;85.07
11936;BME280;6027;48.576;9.180;2023-09-19T12:06:23;96882.28;;;19.36;88.76
11936;BME280;6027;48.576;9.180;2023-09-19T12:08:49;96873.09;;;19.20;87.03
11936;BME280;6027;48.576;9.180;2023-09-19T12:11:17;96868.56;;;19.09;86.63
11936;BME280;6027;48.576;9.180;2023-09-19T12:13:47;96864.00;;;19.21;87.62
11936;BME280;6027;48.576;9.180;2023-09-19T12:16:20;96858.13;;;19.36;84.27
11936;BME280;6027;48.576;9.180;2023-09-19T12:18:50;96857.91;;;19.66;86.11
11936;BME280;6027;48.576;9.180;2023-09-19T12:21:30;96850.47;;;19.85;79.74
11936;BME280;6027;48.576;9.180;2023-09-19T12:26:27;96855.47;;;20.10;79.11
11936;BME280;6027;48.576;9.180;2023-09-19T12:28:55;96841.13;;;20.21;77.68
11936;BME280;6027;48.576;9.180;2023-09-19T12:31:21;96852.06;;;20.31;73.18
11936;BME280;6027;48.576;9.180;2023-09-19T12:33:53;96842.06;;;20.43;75.14
11936;BME280;6027;48.576;9.180;2023-09-19T12:36:23;96837.91;;;20.52;72.35
11936;BME280;6027;48.576;9.180;2023-09-19T12:38:56;96837.31;;;20.67;75.57
11936;BME280;6027;48.576;9.180;2023-09-19T12:41:24;96833.56;;;20.68;71.00
11936;BME280;6027;48.576;9.180;2023-09-19T12:43:52;96838.88;;;20.63;70.25
11936;BME280;6027;48.576;9.180;2023-09-19T12:46:22;96834.31;;;20.63;72.13
11936;BME280;6027;48.576;9.180;2023-09-19T12:49:19;96837.84;;;20.47;68.64
11936;BME280;6027;48.576;9.180;2023-09-19T12:51:46;96829.91;;;20.41;67.87
11936;BME280;6027;48.576;9.180;2023-09-19T12:54:12;96827.00;;;20.42;71.70
11936;BME280;6027;48.576;9.180;2023-09-19T12:56:42;96833.84;;;20.50;70.98
11936;BME280;6027;48.576;9.180;2023-09-19T12:59:12;96832.09;;;20.60;71.80
11936;BME280;6027;48.576;9.180;2023-09-19T13:01:42;96823.09;;;20.50;69.65
11936;BME280;6027;48.576;9.180;2023-09-19T13:04:18;96830.25;;;20.44;69.32
11936;BME280;6027;48.576;9.180;2023-09-19T13:06:45;96832.19;;;20.32;71.36
11936;BME280;6027;48.576;9.180;2023-09-19T13:09:12;96824.69;;;20.34;73.89
11936;BME280;6027;48.576;9.180;2023-09-19T13:11:40;96830.34;;;20.49;73.37
11936;BME280;6027;48.576;9.180;2023-09-19T13:17:04;96826.59;;;20.89;74.79
11936;BME280;6027;48.576;9.180;2023-09-19T13:22:00;96824.84;;;20.99;72.45
11936;BME280;6027;48.576;9.180;2023-09-19T13:24:26;96816.19;;;20.97;72.49
11936;BME280;6027;48.576;9.180;2023-09-19T13:26:54;96815.72;;;21.00;72.70
11936;BME280;6027;48.576;9.180;2023-09-19T13:29:19;96810.72;;;21.09;75.64
11936;BME280;6027;48.576;9.180;2023-09-19T13:31:52;96824.69;;;21.06;72.16
11936;BME280;6027;48.576;9.180;2023-09-19T13:34:20;96821.00;;;21.12;70.14
11936;BME280;6027;48.576;9.180;2023-09-19T13:36:46;96816.84;;;21.04;65.36
11936;BME280;6027;48.576;9.180;2023-09-19T13:39:14;96826.44;;;20.95;68.67
11936;BME280;6027;48.576;9.180;2023-09-19T13:41:47;96821.66;;;21.02;70.20
11936;BME280;6027;48.576;9.180;2023-09-19T13:44:13;96812.28;;;21.05;71.20
11936;BME280;6027;48.576;9.180;2023-09-19T13:46:39;96816.28;;;21.02;71.15
11936;BME280;6027;48.576;9.180;2023-09-19T13:49:06;96816.53;;;21.01;71.99
11936;BME280;6027;48.576;9.180;2023-09-19T13:51:32;96809.41;;;20.90;68.83
11936;BME280;6027;48.576;9.180;2023-09-19T13:53:57;96807.84;;;20.94;70.98
11936;BME280;6027;48.576;9.180;2023-09-19T13:56:25;96801.88;;;20.92;70.16
11936;BME280;6027;48.576;9.180;2023-09-19T13:58:53;96801.88;;;20.92;71.22
11936;BME280;6027;48.576;9.180;2023-09-19T14:01:19;96807.47;;;21.07;69.92
11936;BME280;6027;48.576;9.180;2023-09-19T14:03:45;96802.00;;;21.02;69.32
11936;BME280;6027;48.576;9.180;2023-09-19T14:06:16;96800.44;;;21.06;69.78
11936;BME280;6027;48.576;9.180;2023-09-19T14:08:42;96801.34;;;21.12;68.57